createdAt,value
2023-03-29T00:02:39.811Z,40
2023-03-29T00:07:49.279Z,41
2023-03-29T00:12:58.389Z,41
2023-03-29T00:18:08.971Z,41
2023-03-29T00:23:17.912Z,41
2023-03-29T00:28:27.694Z,41
2023-03-29T00:33:36.804Z,41
2023-03-29T00:38:46.546Z,41
2023-03-29T00:43:55.695Z,41
2023-03-29T00:49:06.076Z,41
2023-03-29T00:54:15.518Z,41
2023-03-29T00:59:25.597Z,41
2023-03-29T01:04:35.357Z,41
2023-03-29T01:09:44.468Z,41
2023-03-29T01:14:54.244Z,41
2023-03-29T01:20:03.357Z,41
2023-03-29T01:25:12.501Z,41
2023-03-29T01:30:22.397Z,41
2023-03-29T01:35:32.053Z,41
2023-03-29T01:40:41.109Z,41
2023-03-29T01:45:49.144Z,41
2023-03-29T02:37:23.348Z,41
2023-03-29T02:42:33.102Z,41
2023-03-29T02:47:42.342Z,41
2023-03-29T02:52:51.985Z,41
2023-03-29T02:58:01.120Z,41
2023-03-29T03:03:10.665Z,41
2023-03-29T03:08:20.000Z,41
2023-03-29T03:10:26.370Z,41
2023-03-29T03:15:43.341Z,41
2023-03-29T03:21:00.332Z,41
2023-03-29T03:26:16.440Z,41
2023-03-29T03:31:34.049Z,41
2023-03-29T03:36:50.211Z,41
2023-03-29T03:42:08.688Z,41
2023-03-29T03:47:24.358Z,41
2023-03-29T03:52:41.737Z,41
2023-03-29T03:57:59.961Z,41
2023-03-29T04:03:18.625Z,41
2023-03-29T04:08:34.720Z,41
2023-03-29T04:13:52.280Z,41
2023-03-29T04:19:08.477Z,41
2023-03-29T04:24:23.804Z,41
2023-03-29T04:29:40.131Z,41
2023-03-29T04:34:56.135Z,41
2023-03-29T04:40:13.096Z,41
2023-03-29T04:45:30.392Z,41
2023-03-29T04:50:46.613Z,42
2023-03-29T04:56:05.267Z,42
2023-03-29T05:01:21.601Z,42
2023-03-29T05:06:39.991Z,42
2023-03-29T05:11:57.260Z,42
2023-03-29T05:17:13.882Z,42
2023-03-29T05:22:28.775Z,42
2023-03-29T05:27:46.115Z,42
2023-03-29T05:33:01.921Z,42
2023-03-29T05:38:19.652Z,42
2023-03-29T05:43:36.599Z,42
2023-03-29T05:48:53.337Z,42
2023-03-29T06:26:04.311Z,44
2023-03-29T06:31:14.252Z,44
2023-03-29T06:36:31.023Z,44
2023-03-29T06:41:47.012Z,44
2023-03-29T06:47:03.578Z,44
2023-03-29T06:52:20.773Z,44
2023-03-29T06:57:38.364Z,44
2023-03-29T07:02:54.971Z,44
2023-03-29T07:08:11.384Z,44
2023-03-29T07:13:26.529Z,44
2023-03-29T07:18:43.181Z,44
2023-03-29T07:24:00.423Z,44
2023-03-29T07:29:16.304Z,44
2023-03-29T07:34:33.253Z,43
2023-03-29T07:39:49.450Z,43
2023-03-29T07:45:05.432Z,43
2023-03-29T07:50:24.654Z,43
2023-03-29T07:55:40.284Z,43
2023-03-29T08:00:57.845Z,43
2023-03-29T08:06:13.887Z,42
2023-03-29T08:11:29.569Z,43
2023-03-29T08:16:46.488Z,42
2023-03-29T08:22:03.173Z,42
2023-03-29T08:27:20.459Z,42
2023-03-29T08:32:38.937Z,42
2023-03-29T08:37:54.743Z,42
2023-03-29T08:43:10.854Z,42
2023-03-29T08:48:29.121Z,42
2023-03-29T08:53:45.741Z,42
2023-03-29T08:59:02.329Z,41
2023-03-29T09:04:18.875Z,41
2023-03-29T09:09:35.068Z,41
2023-03-29T09:14:55.146Z,41
2023-03-29T09:20:11.667Z,41
2023-03-29T09:25:28.265Z,41
2023-03-29T09:51:52.485Z,42
2023-03-29T09:57:10.217Z,41
2023-03-29T10:02:26.144Z,41
2023-03-29T10:07:43.534Z,41
2023-03-29T10:12:59.730Z,42
2023-03-29T10:18:15.329Z,41
2023-03-29T10:23:33.429Z,41
2023-03-29T10:28:49.745Z,41
2023-03-29T10:34:05.586Z,41
2023-03-29T10:39:21.892Z,41
2023-03-29T10:44:39.974Z,41
2023-03-29T10:49:57.545Z,41
2023-03-29T10:55:12.302Z,41
2023-03-29T11:00:30.221Z,41
2023-03-29T11:05:47.652Z,41
2023-03-29T11:11:05.153Z,41
2023-03-29T11:16:21.155Z,40
2023-03-29T11:21:37.459Z,40
2023-03-29T11:26:53.660Z,40
2023-03-29T11:32:16.810Z,40
2023-03-29T11:37:27.416Z,40
2023-03-29T11:42:51.052Z,41
2023-03-29T11:48:09.249Z,40
2023-03-29T11:53:25.914Z,40
2023-03-29T11:58:39.378Z,39
2023-03-29T12:04:00.470Z,39
2023-03-29T12:09:09.892Z,39
2023-03-29T12:14:28.405Z,39
2023-03-29T12:19:44.027Z,38
2023-03-29T12:25:00.449Z,38
2023-03-29T12:30:19.031Z,38
2023-03-29T12:35:37.174Z,38
2023-03-29T12:40:55.189Z,38
2023-03-29T12:46:12.695Z,37
2023-03-29T12:51:28.323Z,38
2023-03-29T12:56:44.437Z,38
2023-03-29T13:02:00.412Z,37
2023-03-29T13:07:16.291Z,37
2023-03-29T13:12:33.790Z,37
2023-03-29T13:17:50.455Z,37
2023-03-29T13:23:07.975Z,37
2023-03-29T13:28:24.614Z,38
2023-03-29T13:33:41.251Z,38
2023-03-29T13:38:58.859Z,38
2023-03-29T13:44:15.178Z,38
2023-03-29T13:49:31.035Z,38
2023-03-29T13:54:48.844Z,38
2023-03-29T14:00:05.907Z,37
2023-03-29T14:05:21.584Z,37
2023-03-29T14:10:39.656Z,37
2023-03-29T14:15:56.372Z,37
2023-03-29T14:21:14.544Z,37
2023-03-29T14:26:30.707Z,37
2023-03-29T14:31:47.004Z,37
2023-03-29T14:37:04.890Z,37
2023-03-29T14:42:22.375Z,37
2023-03-29T14:47:39.765Z,37
2023-03-29T14:52:55.822Z,37
2023-03-29T14:58:11.973Z,37
2023-03-29T15:03:28.169Z,37
2023-03-29T15:09:06.700Z,37
2023-03-29T15:14:01.761Z,37
2023-03-29T15:19:19.209Z,37
2023-03-29T15:24:36.206Z,37
2023-03-29T15:29:51.575Z,37
2023-03-29T15:35:10.422Z,37
2023-03-29T15:40:27.167Z,36
2023-03-29T15:45:47.760Z,36
2023-03-29T15:51:07.137Z,36
2023-03-29T15:56:17.602Z,36
2023-03-29T16:01:34.840Z,36
2023-03-29T16:06:51.175Z,36
2023-03-29T16:12:08.453Z,37
2023-03-29T16:17:24.811Z,37
2023-03-29T16:22:41.410Z,37
2023-03-29T16:27:58.845Z,37
2023-03-29T16:33:16.021Z,36
2023-03-29T16:38:33.441Z,36
2023-03-29T16:43:50.072Z,37
2023-03-29T19:54:15.183Z,40
2023-03-29T19:59:30.712Z,40
2023-03-29T20:04:48.154Z,40
2023-03-29T20:10:04.973Z,41
2023-03-29T20:15:23.046Z,41
2023-03-29T20:20:40.502Z,41
2023-03-29T20:25:50.845Z,41
2023-03-29T20:31:08.612Z,41
2023-03-29T20:36:25.372Z,41
2023-03-29T20:41:42.683Z,41
2023-03-29T20:46:58.849Z,41
2023-03-29T20:52:16.988Z,41
2023-03-29T20:57:33.377Z,41
2023-03-29T21:02:50.779Z,42
2023-03-29T21:08:07.330Z,42
2023-03-29T21:13:24.791Z,42
2023-03-29T21:18:42.055Z,42
2023-03-29T21:23:59.173Z,42
2023-03-29T21:29:15.048Z,42
2023-03-29T21:34:31.349Z,42
2023-03-29T21:39:48.931Z,42
2023-03-29T21:45:04.948Z,42
2023-03-29T21:50:22.376Z,42
2023-03-29T21:55:39.646Z,42
2023-03-29T22:00:56.694Z,42
2023-03-29T22:06:12.694Z,42
2023-03-29T22:12:10.813Z,42
2023-03-29T22:17:28.987Z,41
2023-03-29T22:22:49.197Z,41
2023-03-29T22:28:09.514Z,41
2023-03-29T22:33:26.798Z,41
2023-03-29T22:38:45.414Z,41
2023-03-29T22:44:03.341Z,41
2023-03-29T22:49:19.520Z,41
2023-03-29T22:54:36.926Z,41
2023-03-29T22:59:53.451Z,41
2023-03-29T23:05:10.720Z,41
2023-03-29T23:10:29.058Z,41
2023-03-29T23:15:44.936Z,41
2023-03-29T23:21:02.530Z,41
2023-03-29T23:26:19.646Z,41
2023-03-29T23:31:37.187Z,41
2023-03-29T23:36:52.628Z,40
2023-03-29T23:42:09.605Z,40
2023-03-29T23:47:26.331Z,40
2023-03-29T23:52:45.077Z,40
2023-03-29T23:58:03.188Z,40
